createdAt,value
2018-08-24T00:01:36.300Z,99344.00
2018-08-24T00:04:07.422Z,99348.00
2018-08-24T00:06:38.402Z,99350.00
2018-08-24T00:09:11.524Z,99348.00
2018-08-24T00:11:41.154Z,99348.00
2018-08-24T00:14:11.357Z,99344.00
2018-08-24T00:16:41.628Z,99346.00
2018-08-24T00:19:13.185Z,99351.00
2018-08-24T00:21:42.347Z,99348.00
2018-08-24T00:24:12.148Z,99344.00
2018-08-24T00:26:42.139Z,99348.00
2018-08-24T00:29:11.491Z,99344.00
2018-08-24T00:31:41.908Z,99341.00
2018-08-24T00:34:11.120Z,99337.00
2018-08-24T00:36:40.242Z,99332.00
2018-08-24T00:39:10.309Z,99331.00
2018-08-24T00:41:40.561Z,99328.00
2018-08-24T00:44:10.836Z,99328.00
2018-08-24T00:46:40.777Z,99334.00
2018-08-24T00:49:11.395Z,99332.00
2018-08-24T00:51:40.860Z,99332.00
2018-08-24T00:54:11.461Z,99334.00
2018-08-24T00:56:41.155Z,99331.00
2018-08-24T00:59:11.066Z,99335.00
2018-08-24T01:01:41.741Z,99336.00
2018-08-24T01:04:10.993Z,99331.00
2018-08-24T01:06:40.157Z,99331.00
2018-08-24T01:09:10.127Z,99334.00
2018-08-24T01:11:44.654Z,99337.00
2018-08-24T01:14:13.754Z,99336.00
2018-08-24T01:16:48.200Z,99333.00
2018-08-24T01:19:17.249Z,99330.00
2018-08-24T01:21:47.356Z,99326.00
2018-08-24T01:24:17.301Z,99322.00
2018-08-24T01:26:52.781Z,99322.00
2018-08-24T01:29:21.868Z,99323.00
2018-08-24T01:31:51.635Z,99314.00
2018-08-24T01:34:21.650Z,99312.00
2018-08-24T01:36:51.792Z,99316.00
2018-08-24T01:39:21.669Z,99315.00
2018-08-24T01:41:51.829Z,99324.00
2018-08-24T01:44:21.979Z,99323.00
2018-08-24T01:46:51.896Z,99320.00
2018-08-24T01:49:22.053Z,99320.00
2018-08-24T01:51:52.091Z,99319.00
2018-08-24T01:54:21.145Z,99317.00
2018-08-24T01:56:50.286Z,99316.00
2018-08-24T01:59:19.433Z,99317.00
2018-08-24T02:01:48.547Z,99313.00
2018-08-24T02:04:17.663Z,99318.00
2018-08-24T02:06:46.703Z,99319.00
2018-08-24T02:09:15.850Z,99319.00
2018-08-24T02:11:45.059Z,99314.00
2018-08-24T02:14:19.387Z,99311.00
2018-08-24T02:16:48.404Z,99304.00
2018-08-24T02:19:17.658Z,99307.00
2018-08-24T02:21:51.966Z,99311.00
2018-08-24T02:24:21.032Z,99303.00
2018-08-24T02:26:50.111Z,99312.00
2018-08-24T02:29:19.256Z,99314.00
2018-08-24T02:31:49.128Z,99310.00
2018-08-24T02:34:18.208Z,99311.00
2018-08-24T02:36:47.368Z,99314.00
2018-08-24T02:39:17.602Z,99315.00
2018-08-24T02:41:46.768Z,99319.00
2018-08-24T02:44:15.797Z,99305.00
2018-08-24T02:46:45.363Z,99310.00
2018-08-24T02:49:15.173Z,99306.00
2018-08-24T02:51:45.208Z,99309.00
2018-08-24T02:54:15.534Z,99305.00
2018-08-24T02:56:44.602Z,99308.00
2018-08-24T02:59:14.005Z,99310.00
2018-08-24T03:01:43.050Z,99312.00
2018-08-24T03:04:12.127Z,99307.00
2018-08-24T03:06:41.193Z,99310.00
2018-08-24T03:09:11.326Z,99307.00
2018-08-24T03:11:40.400Z,99308.00
2018-08-24T03:14:09.632Z,99307.00
2018-08-24T03:16:38.706Z,99304.00
2018-08-24T03:19:07.821Z,99312.00
2018-08-24T03:21:36.985Z,99309.00
2018-08-24T03:24:05.824Z,99315.00
2018-08-24T03:26:34.899Z,99313.00
2018-08-24T03:29:03.949Z,99309.00
2018-08-24T03:31:33.062Z,99308.00
2018-08-24T03:34:02.781Z,99304.00
2018-08-24T03:36:31.967Z,99304.00
2018-08-24T03:39:01.130Z,99311.00
2018-08-24T03:41:30.171Z,99314.00
2018-08-24T03:43:59.255Z,99312.00
2018-08-24T03:46:28.321Z,99310.00
2018-08-24T03:48:57.857Z,99307.00
2018-08-24T03:51:27.115Z,99301.00
2018-08-24T03:53:56.461Z,99299.00
2018-08-24T03:56:25.626Z,99307.00
2018-08-24T03:58:54.759Z,99313.00
2018-08-24T04:01:23.850Z,99317.00
2018-08-24T04:03:52.972Z,99320.00
2018-08-24T04:06:28.775Z,99321.00
2018-08-24T04:08:58.127Z,99322.00
2018-08-24T04:11:27.355Z,99327.00
2018-08-24T04:13:56.518Z,99327.00
2018-08-24T04:16:25.644Z,99333.00
2018-08-24T04:18:54.710Z,99336.00
2018-08-24T04:21:23.805Z,99332.00
2018-08-24T04:23:53.116Z,99337.00
2018-08-24T04:26:22.254Z,99335.00
2018-08-24T04:28:51.463Z,99334.00
2018-08-24T04:31:20.678Z,99332.00
2018-08-24T04:33:49.869Z,99335.00
2018-08-24T04:36:18.987Z,99343.00
2018-08-24T04:38:48.377Z,99342.00
2018-08-24T04:41:17.546Z,99347.00
2018-08-24T04:43:46.781Z,99346.00
2018-08-24T04:46:16.088Z,99344.00
2018-08-24T04:48:45.334Z,99352.00
2018-08-24T04:51:14.567Z,99347.00
2018-08-24T04:53:43.707Z,99350.00
2018-08-24T04:56:12.906Z,99350.00
2018-08-24T04:58:42.252Z,99349.00
2018-08-24T05:01:11.668Z,99350.00
2018-08-24T05:03:41.244Z,99348.00
2018-08-24T05:06:10.427Z,99351.00
2018-08-24T05:08:39.638Z,99348.00
2018-08-24T05:11:08.774Z,99348.00
2018-08-24T05:13:38.645Z,99347.00
2018-08-24T05:16:07.795Z,99354.00
2018-08-24T05:18:37.045Z,99353.00
2018-08-24T05:21:06.248Z,99359.00
2018-08-24T05:23:35.670Z,99354.00
2018-08-24T05:26:04.775Z,99364.00
2018-08-24T05:28:34.008Z,99368.00
2018-08-24T05:31:03.088Z,99361.00
2018-08-24T05:33:32.258Z,99365.00
2018-08-24T05:36:01.384Z,99367.00
2018-08-24T05:38:30.703Z,99372.00
2018-08-24T05:40:59.834Z,99370.00
2018-08-24T05:43:29.129Z,99373.00
2018-08-24T05:45:58.435Z,99368.00
2018-08-24T05:48:27.565Z,99368.00
2018-08-24T05:50:56.829Z,99367.00
2018-08-24T05:53:26.080Z,99368.00
2018-08-24T05:55:55.253Z,99363.00
2018-08-24T05:58:24.360Z,99367.00
2018-08-24T06:00:53.482Z,99368.00
2018-08-24T06:03:22.748Z,99361.00
2018-08-24T06:05:57.161Z,99362.00
2018-08-24T06:08:27.058Z,99378.00
2018-08-24T06:10:56.201Z,99378.00
2018-08-24T06:13:25.459Z,99391.00
2018-08-24T06:15:54.700Z,99383.00
2018-08-24T06:18:23.812Z,99379.00
2018-08-24T06:20:53.806Z,99386.00
2018-08-24T06:23:24.070Z,99391.00
2018-08-24T06:25:53.137Z,99390.00
2018-08-24T06:28:22.518Z,99401.00
2018-08-24T06:30:51.740Z,99397.00
2018-08-24T06:33:22.947Z,99394.00
2018-08-24T06:35:53.098Z,99401.00
2018-08-24T06:38:22.404Z,99406.00
2018-08-24T06:40:51.709Z,99412.00
2018-08-24T06:43:20.936Z,99422.00
2018-08-24T06:45:50.037Z,99410.00
2018-08-24T06:48:19.223Z,99418.00
2018-08-24T06:50:48.477Z,99418.00
2018-08-24T06:53:17.937Z,99420.00
2018-08-24T06:55:46.967Z,99412.00
2018-08-24T06:58:16.129Z,99427.00
2018-08-24T07:00:46.361Z,99428.00
2018-08-24T07:03:15.521Z,99426.00
2018-08-24T07:05:44.720Z,99428.00
2018-08-24T07:08:13.992Z,99436.00
2018-08-24T07:10:43.458Z,99440.00
2018-08-24T07:13:12.629Z,99451.00
2018-08-24T07:15:42.108Z,99442.00
2018-08-24T07:18:11.302Z,99443.00
2018-08-24T07:20:40.565Z,99441.00
2018-08-24T07:23:09.712Z,99449.00
2018-08-24T07:25:38.826Z,99448.00
2018-08-24T07:28:07.980Z,99446.00
2018-08-24T07:30:37.367Z,99452.00
2018-08-24T07:33:06.592Z,99453.00
2018-08-24T07:35:36.467Z,99459.00
2018-08-24T07:38:05.982Z,99457.00
2018-08-24T07:40:35.102Z,99463.00
2018-08-24T07:43:04.255Z,99469.00
2018-08-24T07:45:33.375Z,99470.00
2018-08-24T07:48:02.702Z,99472.00
2018-08-24T07:50:32.103Z,99469.00
2018-08-24T07:53:01.677Z,99473.00
2018-08-24T07:55:31.049Z,99474.00
2018-08-24T07:58:00.175Z,99475.00
2018-08-24T08:00:29.403Z,99479.00
2018-08-24T08:02:58.605Z,99487.00
2018-08-24T08:05:27.851Z,99486.00
2018-08-24T08:07:56.960Z,99487.00
2018-08-24T08:10:30.245Z,99483.00
2018-08-24T08:12:59.554Z,99483.00
2018-08-24T08:15:29.700Z,99486.00
2018-08-24T08:17:58.761Z,99492.00
2018-08-24T08:20:27.911Z,99496.00
2018-08-24T08:22:57.440Z,99496.00
2018-08-24T08:25:26.578Z,99502.00
2018-08-24T08:27:55.821Z,99505.00
2018-08-24T08:30:25.240Z,99507.00
2018-08-24T08:32:54.446Z,99512.00
2018-08-24T08:35:23.607Z,99509.00
2018-08-24T08:37:52.738Z,99511.00
2018-08-24T08:40:21.909Z,99509.00
2018-08-24T08:42:51.005Z,99511.00
2018-08-24T08:45:20.162Z,99514.00
2018-08-24T08:47:49.259Z,99518.00
2018-08-24T08:50:18.460Z,99526.00
2018-08-24T08:52:50.974Z,99531.00
2018-08-24T08:55:20.730Z,99529.00
2018-08-24T08:57:50.041Z,99531.00
2018-08-24T09:00:19.173Z,99532.00
2018-08-24T09:02:48.399Z,99535.00
2018-08-24T09:05:17.656Z,99533.00
2018-08-24T09:07:46.977Z,99541.00
2018-08-24T09:10:16.214Z,99529.00
2018-08-24T09:12:45.685Z,99534.00
2018-08-24T09:15:21.308Z,99539.00
2018-08-24T09:17:55.688Z,99530.00
2018-08-24T09:20:31.357Z,99541.00
2018-08-24T09:23:06.191Z,99541.00
2018-08-24T09:25:40.998Z,99548.00
2018-08-24T09:28:16.216Z,99541.00
2018-08-24T09:30:52.556Z,99541.00
2018-08-24T09:33:21.801Z,99540.00
2018-08-24T09:35:51.218Z,99548.00
2018-08-24T09:38:20.459Z,99537.00
2018-08-24T09:43:32.953Z,99534.00
2018-08-24T09:46:02.153Z,99542.00
2018-08-24T09:48:35.987Z,99541.00
2018-08-24T09:51:10.374Z,99541.00
2018-08-24T09:53:45.177Z,99531.00
2018-08-24T09:56:14.760Z,99539.00
2018-08-24T09:58:45.124Z,99537.00
2018-08-24T10:01:20.001Z,99537.00
2018-08-24T10:04:52.067Z,99521.00
2018-08-24T10:07:24.096Z,99524.00
2018-08-24T10:09:54.222Z,99525.00
2018-08-24T10:12:23.418Z,99528.00
2018-08-24T10:14:52.696Z,99528.00
2018-08-24T10:17:25.993Z,99519.00
2018-08-24T10:19:55.813Z,99526.00
2018-08-24T10:22:25.035Z,99532.00
2018-08-24T10:24:54.194Z,99527.00
2018-08-24T10:27:23.704Z,99537.00
2018-08-24T10:29:53.438Z,99536.00
2018-08-24T10:32:53.870Z,99538.00
2018-08-24T10:35:23.430Z,99540.00
2018-08-24T10:37:52.840Z,99536.00
2018-08-24T10:40:22.826Z,99540.00
2018-08-24T10:42:52.234Z,99541.00
2018-08-24T10:45:21.369Z,99542.00
2018-08-24T10:47:51.973Z,99535.00
2018-08-24T10:50:21.591Z,99537.00
2018-08-24T10:52:51.324Z,99542.00
2018-08-24T10:55:20.939Z,99539.00
2018-08-24T10:57:50.778Z,99535.00
2018-08-24T11:00:20.014Z,99534.00
2018-08-24T11:02:49.354Z,99532.00
2018-08-24T11:05:20.667Z,99535.00
2018-08-24T11:07:50.504Z,99529.00
2018-08-24T11:10:20.468Z,99531.00
2018-08-24T11:12:49.984Z,99533.00
2018-08-24T11:15:19.745Z,99528.00
2018-08-24T11:17:54.959Z,99530.00
2018-08-24T11:20:24.486Z,99530.00
2018-08-24T11:22:53.895Z,99536.00
2018-08-24T11:25:23.075Z,99532.00
2018-08-24T11:27:52.362Z,99534.00
2018-08-24T11:30:21.633Z,99533.00
2018-08-24T11:32:50.921Z,99535.00
2018-08-24T11:35:20.131Z,99535.00
2018-08-24T11:37:49.403Z,99533.00
2018-08-24T11:40:18.851Z,99545.00
2018-08-24T11:42:47.959Z,99549.00
2018-08-24T11:45:17.196Z,99547.00
2018-08-24T11:47:46.341Z,99546.00
2018-08-24T11:50:15.685Z,99537.00
2018-08-24T11:52:45.153Z,99547.00
2018-08-24T11:55:14.564Z,99544.00
2018-08-24T11:57:43.919Z,99552.00
2018-08-24T12:00:13.212Z,99552.00
2018-08-24T12:02:42.532Z,99550.00
2018-08-24T12:05:11.757Z,99545.00
2018-08-24T12:07:41.162Z,99540.00
2018-08-24T12:10:10.433Z,99531.00
2018-08-24T12:12:39.780Z,99535.00
2018-08-24T12:15:09.014Z,99544.00
2018-08-24T12:17:38.738Z,99531.00
2018-08-24T12:20:08.727Z,99543.00
2018-08-24T12:22:37.945Z,99539.00
2018-08-24T12:25:07.088Z,99540.00
2018-08-24T12:27:36.297Z,99540.00
2018-08-24T12:30:05.822Z,99542.00
2018-08-24T12:32:35.010Z,99550.00
2018-08-24T12:35:04.176Z,99553.00
2018-08-24T12:37:48.269Z,99546.00
2018-08-24T12:40:17.456Z,99553.00
2018-08-24T12:42:46.870Z,99541.00
2018-08-24T12:45:16.403Z,99542.00
2018-08-24T12:47:45.734Z,99544.00
2018-08-24T12:50:15.070Z,99541.00
2018-08-24T12:52:45.618Z,99532.00
2018-08-24T12:55:15.038Z,99534.00
2018-08-24T12:57:44.561Z,99540.00
2018-08-24T13:00:13.934Z,99532.00
2018-08-24T13:02:43.275Z,99527.00
2018-08-24T13:05:12.692Z,99520.00
2018-08-24T13:07:42.120Z,99520.00
2018-08-24T13:10:11.593Z,99518.00
2018-08-24T13:12:40.901Z,99519.00
2018-08-24T13:15:10.156Z,99523.00
2018-08-24T13:17:39.413Z,99523.00
2018-08-24T13:20:08.645Z,99515.00
2018-08-24T13:22:37.935Z,99506.00
2018-08-24T13:25:07.175Z,99508.00
2018-08-24T13:30:13.423Z,99506.00
2018-08-24T13:32:42.600Z,99506.00
2018-08-24T13:35:11.802Z,99503.00
2018-08-24T13:37:41.184Z,99498.00
2018-08-24T13:40:10.410Z,99496.00
2018-08-24T13:42:39.718Z,99495.00
2018-08-24T13:45:09.126Z,99503.00
2018-08-24T13:47:38.437Z,99493.00
2018-08-24T13:50:07.725Z,99483.00
2018-08-24T13:52:37.154Z,99487.00
2018-08-24T13:55:06.499Z,99493.00
2018-08-24T13:57:35.788Z,99490.00
2018-08-24T14:00:05.826Z,99489.00
2018-08-24T14:02:34.842Z,99477.00
2018-08-24T14:05:04.067Z,99483.00
2018-08-24T14:07:33.571Z,99484.00
2018-08-24T14:10:02.841Z,99472.00
2018-08-24T14:12:32.063Z,99478.00
2018-08-24T14:15:01.174Z,99477.00
2018-08-24T14:17:30.257Z,99473.00
2018-08-24T14:19:59.511Z,99462.00
2018-08-24T14:22:28.633Z,99469.00
2018-08-24T14:24:57.747Z,99473.00
2018-08-24T14:27:27.193Z,99470.00
2018-08-24T14:29:56.334Z,99472.00
2018-08-24T14:32:25.530Z,99477.00
2018-08-24T14:34:54.682Z,99485.00
2018-08-24T14:37:24.115Z,99478.00
2018-08-24T14:39:54.306Z,99476.00
2018-08-24T14:42:23.526Z,99473.00
2018-08-24T14:44:52.722Z,99472.00
2018-08-24T14:47:21.868Z,99468.00
2018-08-24T14:49:51.462Z,99465.00
2018-08-24T14:52:20.754Z,99463.00
2018-08-24T14:54:51.013Z,99457.00
2018-08-24T14:57:20.584Z,99455.00
2018-08-24T14:59:49.966Z,99461.00
2018-08-24T15:02:20.544Z,99454.00
2018-08-24T15:04:49.731Z,99451.00
2018-08-24T15:07:18.896Z,99447.00
2018-08-24T15:09:48.482Z,99451.00
2018-08-24T15:12:17.757Z,99443.00
2018-08-24T15:14:47.057Z,99447.00
2018-08-24T15:17:16.283Z,99452.00
2018-08-24T15:19:45.483Z,99449.00
2018-08-24T15:22:15.616Z,99449.00
2018-08-24T15:24:45.133Z,99449.00
2018-08-24T15:27:14.329Z,99442.00
2018-08-24T15:29:43.757Z,99451.00
2018-08-24T15:32:13.298Z,99444.00
2018-08-24T15:34:42.629Z,99448.00
2018-08-24T15:37:12.135Z,99444.00
2018-08-24T15:39:41.620Z,99444.00
2018-08-24T15:42:10.781Z,99447.00
2018-08-24T15:44:40.384Z,99448.00
2018-08-24T15:47:11.007Z,99447.00
2018-08-24T15:49:40.314Z,99442.00
2018-08-24T15:52:09.923Z,99453.00
2018-08-24T15:54:38.999Z,99454.00
2018-08-24T15:57:08.335Z,99450.00
2018-08-24T15:59:37.453Z,99444.00
2018-08-24T16:02:06.962Z,99439.00
2018-08-24T16:04:36.289Z,99447.00
2018-08-24T16:07:06.021Z,99433.00
2018-08-24T16:09:35.137Z,99439.00
2018-08-24T16:12:04.338Z,99433.00
2018-08-24T16:14:33.558Z,99434.00
2018-08-24T16:17:02.632Z,99432.00
2018-08-24T16:19:31.728Z,99433.00
2018-08-24T16:22:01.891Z,99439.00
2018-08-24T16:24:31.388Z,99435.00
2018-08-24T16:27:01.246Z,99427.00
2018-08-24T16:29:30.398Z,99428.00
2018-08-24T16:31:59.927Z,99424.00
2018-08-24T16:34:29.062Z,99426.00
2018-08-24T16:37:05.267Z,99425.00
2018-08-24T16:39:34.567Z,99423.00
2018-08-24T16:42:03.800Z,99420.00
2018-08-24T16:44:33.023Z,99423.00
2018-08-24T16:48:56.968Z,99425.00
2018-08-24T16:51:26.042Z,99429.00
2018-08-24T16:53:55.398Z,99430.00
2018-08-24T16:56:24.704Z,99421.00
2018-08-24T16:58:54.199Z,99416.00
2018-08-24T17:01:23.461Z,99425.00
2018-08-24T17:03:52.613Z,99420.00
2018-08-24T17:06:21.781Z,99421.00
2018-08-24T17:08:50.799Z,99421.00
2018-08-24T17:11:19.937Z,99424.00
2018-08-24T17:13:49.030Z,99425.00
2018-08-24T17:16:18.172Z,99429.00
2018-08-24T17:18:48.383Z,99429.00
2018-08-24T17:21:17.755Z,99417.00
2018-08-24T17:23:46.926Z,99429.00
2018-08-24T17:26:16.340Z,99430.00
2018-08-24T17:28:45.653Z,99422.00
2018-08-24T17:31:14.936Z,99421.00
2018-08-24T17:33:44.245Z,99418.00
2018-08-24T17:36:13.499Z,99408.00
2018-08-24T17:38:42.859Z,99411.00
2018-08-24T17:41:12.705Z,99403.00
2018-08-24T17:43:42.418Z,99407.00
2018-08-24T17:46:11.989Z,99407.00
2018-08-24T17:48:42.740Z,99405.00
2018-08-24T17:51:12.420Z,99404.00
2018-08-24T17:53:41.937Z,99408.00
2018-08-24T17:56:18.125Z,99413.00
2018-08-24T17:58:47.390Z,99408.00
2018-08-24T18:01:16.983Z,99406.00
2018-08-24T18:03:46.449Z,99413.00
2018-08-24T18:06:15.705Z,99410.00
2018-08-24T18:08:45.442Z,99410.00
2018-08-24T18:11:14.958Z,99414.00
2018-08-24T18:13:45.579Z,99413.00
2018-08-24T18:16:15.493Z,99416.00
2018-08-24T18:18:44.979Z,99416.00
2018-08-24T18:21:14.752Z,99415.00
2018-08-24T18:23:44.618Z,99423.00
2018-08-24T18:26:16.129Z,99421.00
2018-08-24T18:28:46.921Z,99421.00
2018-08-24T18:31:17.346Z,99417.00
2018-08-24T18:33:46.467Z,99424.00
2018-08-24T18:36:16.811Z,99424.00
2018-08-24T18:38:46.659Z,99424.00
2018-08-24T18:41:17.209Z,99423.00
2018-08-24T18:43:47.915Z,99432.00
2018-08-24T18:46:17.676Z,99427.00
2018-08-24T18:48:47.666Z,99429.00
2018-08-24T18:51:17.228Z,99426.00
2018-08-24T18:53:46.810Z,99432.00
2018-08-24T18:56:17.609Z,99432.00
2018-08-24T18:58:48.759Z,99432.00
2018-08-24T19:01:18.542Z,99437.00
2018-08-24T19:03:48.173Z,99431.00
2018-08-24T19:06:17.689Z,99433.00
2018-08-24T19:08:47.469Z,99436.00
2018-08-24T19:11:21.889Z,99434.00
2018-08-24T19:13:52.393Z,99441.00
2018-08-24T19:16:22.050Z,99444.00
2018-08-24T19:18:56.779Z,99445.00
2018-08-24T19:21:31.478Z,99449.00
2018-08-24T19:24:00.693Z,99448.00
2018-08-24T19:26:30.047Z,99450.00
2018-08-24T19:29:04.477Z,99451.00
2018-08-24T19:31:33.575Z,99447.00
2018-08-24T19:34:03.177Z,99451.00
2018-08-24T19:36:32.596Z,99452.00
2018-08-24T19:39:02.258Z,99450.00
2018-08-24T19:42:38.743Z,99445.00
2018-08-24T19:45:08.100Z,99446.00
2018-08-24T19:47:42.521Z,99439.00
2018-08-24T19:50:11.877Z,99440.00
2018-08-24T19:52:41.116Z,99438.00
2018-08-24T19:55:10.574Z,99436.00
2018-08-24T19:57:45.096Z,99436.00
2018-08-24T20:00:21.384Z,99434.00
2018-08-24T20:02:50.613Z,99431.00
2018-08-24T20:05:19.884Z,99423.00
2018-08-24T20:07:54.392Z,99423.00
2018-08-24T20:10:23.501Z,99422.00
2018-08-24T20:12:52.719Z,99423.00
2018-08-24T20:15:27.257Z,99424.00
2018-08-24T20:17:56.487Z,99424.00
2018-08-24T20:20:25.803Z,99422.00
2018-08-24T20:22:54.992Z,99425.00
2018-08-24T20:25:24.557Z,99422.00
2018-08-24T20:27:53.634Z,99417.00
2018-08-24T20:30:24.069Z,99403.00
2018-08-24T20:32:53.159Z,99407.00
2018-08-24T20:35:22.379Z,99400.00
2018-08-24T20:37:51.997Z,99396.00
2018-08-24T20:40:21.195Z,99394.00
2018-08-24T20:42:50.569Z,99394.00
2018-08-24T20:45:19.843Z,99398.00
2018-08-24T20:47:49.325Z,99397.00
2018-08-24T20:50:18.634Z,99397.00
2018-08-24T20:52:48.989Z,99393.00
2018-08-24T20:55:18.322Z,99391.00
2018-08-24T20:57:47.508Z,99394.00
2018-08-24T21:00:16.847Z,99390.00
2018-08-24T21:02:46.325Z,99389.00
2018-08-24T21:05:15.777Z,99385.00
2018-08-24T21:07:45.279Z,99395.00
2018-08-24T21:10:14.619Z,99392.00
2018-08-24T21:12:43.935Z,99395.00
2018-08-24T21:15:13.293Z,99397.00
2018-08-24T21:17:42.425Z,99400.00
2018-08-24T21:20:12.031Z,99398.00
2018-08-24T21:22:42.202Z,99397.00
2018-08-24T21:25:11.532Z,99398.00
2018-08-24T21:27:41.717Z,99393.00
2018-08-24T21:30:11.090Z,99398.00
2018-08-24T21:32:40.236Z,99402.00
2018-08-24T21:35:11.666Z,99389.00
2018-08-24T21:37:41.336Z,99394.00
2018-08-24T21:40:12.014Z,99390.00
2018-08-24T21:42:41.184Z,99396.00
2018-08-24T21:45:10.253Z,99391.00
2018-08-24T21:47:39.408Z,99398.00
2018-08-24T21:50:09.744Z,99386.00
2018-08-24T21:52:40.160Z,99389.00
2018-08-24T21:55:09.420Z,99389.00
2018-08-24T21:57:39.811Z,99391.00
2018-08-24T22:00:13.752Z,99389.00
2018-08-24T22:02:43.756Z,99389.00
2018-08-24T22:05:13.137Z,99390.00
2018-08-24T22:07:42.359Z,99390.00
2018-08-24T22:10:12.015Z,99388.00
2018-08-24T22:12:41.735Z,99380.00
2018-08-24T22:15:11.071Z,99381.00
2018-08-24T22:17:40.542Z,99373.00
2018-08-24T22:20:09.695Z,99377.00
2018-08-24T22:22:38.772Z,99384.00
2018-08-24T22:25:08.157Z,99379.00
2018-08-24T22:27:37.251Z,99379.00
2018-08-24T22:30:06.831Z,99381.00
2018-08-24T22:32:35.908Z,99384.00
2018-08-24T22:35:05.012Z,99385.00
2018-08-24T22:37:34.850Z,99390.00
2018-08-24T22:40:04.079Z,99387.00
2018-08-24T22:42:33.169Z,99387.00
2018-08-24T22:45:02.304Z,99384.00
2018-08-24T22:47:31.441Z,99381.00
2018-08-24T22:50:00.559Z,99385.00
2018-08-24T22:52:29.739Z,99376.00
2018-08-24T22:54:58.897Z,99372.00
2018-08-24T22:57:27.933Z,99371.00
2018-08-24T22:59:57.329Z,99373.00
2018-08-24T23:02:26.377Z,99367.00
2018-08-24T23:04:56.364Z,99371.00
2018-08-24T23:07:27.604Z,99365.00
2018-08-24T23:09:57.986Z,99357.00
2018-08-24T23:12:27.116Z,99357.00
2018-08-24T23:14:56.751Z,99353.00
2018-08-24T23:17:25.872Z,99357.00
2018-08-24T23:19:55.207Z,99355.00
2018-08-24T23:22:24.319Z,99349.00
2018-08-24T23:24:53.445Z,99342.00
2018-08-24T23:27:22.544Z,99336.00
2018-08-24T23:29:51.623Z,99332.00
2018-08-24T23:32:20.737Z,99323.00
2018-08-24T23:34:50.037Z,99318.00
2018-08-24T23:37:19.132Z,99317.00
2018-08-24T23:39:48.243Z,99314.00
2018-08-24T23:42:17.754Z,99313.00
2018-08-24T23:44:47.338Z,99310.00
2018-08-24T23:47:16.788Z,99306.00
2018-08-24T23:49:45.910Z,99304.00
2018-08-24T23:52:15.113Z,99305.00
2018-08-24T23:54:44.767Z,99296.00
2018-08-24T23:57:13.869Z,99295.00
2018-08-24T23:59:44.426Z,99292.00
